createdAt,value
2023-02-15T00:02:01.692Z,3.00
2023-02-15T00:04:47.056Z,3.00
2023-02-15T00:07:18.850Z,2.90
2023-02-15T00:09:47.952Z,2.90
2023-02-15T00:12:16.902Z,2.90
2023-02-15T00:14:44.904Z,2.90
2023-02-15T00:17:12.936Z,2.80
2023-02-15T00:19:41.243Z,2.80
2023-02-15T00:22:09.344Z,2.80
2023-02-15T00:24:38.663Z,2.80
2023-02-15T00:27:06.654Z,2.80
2023-02-15T00:29:34.613Z,2.70
2023-02-15T00:32:02.631Z,2.70
2023-02-15T00:34:30.801Z,2.70
2023-02-15T00:36:58.786Z,2.70
2023-02-15T00:39:28.192Z,2.70
2023-02-15T00:41:57.559Z,2.70
2023-02-15T00:44:27.195Z,2.70
2023-02-15T00:46:55.180Z,2.70
2023-02-15T00:49:23.164Z,2.60
2023-02-15T00:51:51.136Z,2.60
2023-02-15T00:54:19.263Z,2.60
2023-02-15T00:56:47.248Z,2.60
2023-02-15T00:59:17.031Z,2.60
2023-02-15T01:01:45.005Z,2.60
2023-02-15T01:04:13.023Z,2.60
2023-02-15T01:06:41.020Z,2.60
2023-02-15T01:09:08.973Z,2.60
2023-02-15T01:11:37.052Z,2.60
2023-02-15T01:14:06.385Z,2.50
2023-02-15T01:16:35.714Z,2.50
2023-02-15T01:19:04.632Z,2.50
2023-02-15T01:21:35.239Z,2.50
2023-02-15T01:24:03.262Z,2.40
2023-02-15T01:26:31.201Z,2.50
2023-02-15T01:28:59.222Z,2.40
2023-02-15T01:31:27.381Z,2.40
2023-02-15T01:33:56.842Z,2.40
2023-02-15T01:36:24.845Z,2.40
2023-02-15T01:38:52.852Z,2.40
2023-02-15T01:41:24.964Z,2.40
2023-02-15T01:43:55.616Z,2.30
2023-02-15T01:46:29.588Z,2.30
2023-02-15T01:49:04.925Z,2.30
2023-02-15T01:51:36.764Z,2.30
2023-02-15T01:54:09.363Z,2.40
2023-02-15T01:56:40.090Z,2.40
2023-02-15T01:59:11.600Z,2.50
2023-02-15T02:01:40.256Z,2.50
2023-02-15T02:04:15.565Z,2.50
2023-02-15T02:06:43.712Z,2.50
2023-02-15T02:09:12.448Z,2.40
2023-02-15T02:11:42.409Z,2.30
2023-02-15T02:14:10.677Z,2.30
2023-02-15T02:16:48.683Z,2.30
2023-02-15T02:19:55.396Z,2.40
2023-02-15T02:22:53.345Z,2.40
2023-02-15T02:25:45.006Z,2.40
2023-02-15T02:28:32.246Z,2.30
2023-02-15T02:31:24.668Z,2.30
2023-02-15T02:34:01.891Z,2.30
2023-02-15T02:36:37.525Z,2.40
2023-02-15T02:39:16.029Z,2.40
2023-02-15T02:41:52.588Z,2.40
2023-02-15T02:44:26.910Z,2.40
2023-02-15T02:46:59.559Z,2.40
2023-02-15T02:49:35.257Z,2.40
2023-02-15T02:52:05.149Z,2.40
2023-02-15T02:54:34.663Z,2.30
2023-02-15T02:57:09.816Z,2.40
2023-02-15T02:59:43.084Z,2.30
2023-02-15T03:02:15.500Z,2.30
2023-02-15T03:04:48.700Z,2.30
2023-02-15T03:07:22.951Z,2.30
2023-02-15T03:09:53.544Z,2.30
2023-02-15T03:12:24.509Z,2.30
2023-02-15T03:14:55.496Z,2.30
2023-02-15T03:17:27.029Z,2.20
2023-02-15T03:19:59.827Z,2.30
2023-02-15T03:22:31.198Z,2.30
2023-02-15T03:25:03.015Z,2.30
2023-02-15T03:27:36.221Z,2.20
2023-02-15T03:30:07.007Z,2.30
2023-02-15T03:32:36.499Z,2.30
2023-02-15T03:35:06.983Z,2.30
2023-02-15T03:37:37.881Z,2.20
2023-02-15T03:40:25.874Z,2.20
2023-02-15T03:43:01.892Z,2.30
2023-02-15T03:45:33.569Z,2.20
2023-02-15T03:48:03.531Z,2.30
2023-02-15T03:50:54.817Z,2.30
2023-02-15T03:53:25.497Z,2.30
2023-02-15T03:55:56.660Z,2.20
2023-02-15T03:58:42.190Z,2.20
2023-02-15T04:01:38.786Z,2.20
2023-02-15T04:04:13.712Z,2.20
2023-02-15T04:06:43.060Z,2.20
2023-02-15T04:09:39.872Z,2.20
2023-02-15T04:12:07.983Z,2.20
2023-02-15T04:15:05.110Z,2.10
2023-02-15T04:17:33.312Z,2.10
2023-02-15T04:20:18.765Z,2.10
2023-02-15T04:23:05.730Z,2.10
2023-02-15T04:25:33.721Z,2.10
2023-02-15T04:28:01.715Z,2.10
2023-02-15T04:30:29.812Z,2.00
2023-02-15T04:32:58.556Z,2.00
2023-02-15T04:35:26.688Z,2.00
2023-02-15T04:37:56.888Z,2.00
2023-02-15T04:40:24.938Z,2.00
2023-02-15T04:42:52.893Z,2.00
2023-02-15T04:45:20.858Z,2.00
2023-02-15T04:47:48.844Z,1.90
2023-02-15T04:50:24.085Z,1.90
2023-02-15T04:52:52.257Z,1.90
2023-02-15T04:55:21.689Z,2.00
2023-02-15T04:57:49.653Z,2.00
2023-02-15T05:00:18.107Z,2.00
2023-02-15T05:02:46.116Z,1.90
2023-02-15T05:05:16.117Z,1.90
2023-02-15T05:07:44.155Z,1.90
2023-02-15T05:10:12.273Z,1.90
2023-02-15T05:12:41.702Z,1.90
2023-02-15T05:15:10.668Z,2.00
2023-02-15T05:17:38.967Z,1.90
2023-02-15T05:20:08.122Z,1.90
2023-02-15T05:22:36.109Z,1.90
2023-02-15T05:25:21.565Z,1.90
2023-02-15T05:28:08.342Z,1.80
2023-02-15T05:30:36.490Z,1.80
2023-02-15T05:33:04.615Z,1.80
2023-02-15T05:35:32.584Z,1.80
2023-02-15T05:38:00.534Z,1.70
2023-02-15T05:40:28.594Z,1.70
2023-02-15T05:42:58.295Z,1.70
2023-02-15T05:45:26.512Z,1.70
2023-02-15T05:47:54.792Z,1.70
2023-02-15T05:50:22.798Z,1.70
2023-02-15T05:52:52.455Z,1.70
2023-02-15T05:55:20.745Z,1.70
2023-02-15T05:57:48.805Z,1.70
2023-02-15T06:00:20.090Z,1.70
2023-02-15T06:02:48.542Z,1.80
2023-02-15T06:05:16.711Z,1.80
2023-02-15T06:07:45.562Z,1.80
2023-02-15T06:10:13.925Z,1.70
2023-02-15T06:12:41.909Z,1.70
2023-02-15T06:15:10.675Z,1.70
2023-02-15T06:17:40.050Z,1.70
2023-02-15T06:20:09.441Z,1.70
2023-02-15T06:22:37.491Z,1.70
2023-02-15T06:25:05.937Z,1.70
2023-02-15T06:27:33.940Z,1.70
2023-02-15T06:30:02.085Z,1.70
2023-02-15T06:32:30.165Z,1.60
2023-02-15T06:34:59.558Z,1.60
2023-02-15T06:37:27.564Z,1.60
2023-02-15T06:39:55.541Z,1.60
2023-02-15T06:42:23.693Z,1.60
2023-02-15T06:44:51.678Z,1.60
2023-02-15T06:47:19.682Z,1.60
2023-02-15T06:49:47.660Z,1.60
2023-02-15T06:52:17.046Z,1.60
2023-02-15T06:54:45.095Z,1.60
2023-02-15T06:57:13.064Z,1.60
2023-02-15T06:59:41.027Z,1.60
2023-02-15T07:02:10.230Z,1.60
2023-02-15T07:04:38.239Z,1.60
2023-02-15T07:07:09.923Z,1.60
2023-02-15T07:09:39.379Z,1.60
2023-02-15T07:12:25.474Z,1.60
2023-02-15T07:14:53.586Z,1.70
2023-02-15T07:17:35.581Z,1.70
2023-02-15T07:20:04.835Z,1.70
2023-02-15T07:22:34.949Z,1.70
2023-02-15T07:25:04.509Z,1.70
2023-02-15T07:27:33.551Z,1.80
2023-02-15T07:30:01.955Z,1.80
2023-02-15T07:32:31.358Z,1.80
2023-02-15T07:34:59.545Z,1.90
2023-02-15T07:37:28.232Z,1.90
2023-02-15T07:39:56.237Z,1.90
2023-02-15T07:42:25.549Z,2.00
2023-02-15T07:44:53.875Z,2.00
2023-02-15T07:47:21.839Z,2.00
2023-02-15T07:49:50.556Z,2.10
2023-02-15T07:52:18.569Z,2.20
2023-02-15T07:54:46.545Z,2.20
2023-02-15T07:57:14.487Z,2.30
2023-02-15T07:59:43.816Z,2.40
2023-02-15T08:02:12.703Z,2.40
2023-02-15T08:04:40.961Z,2.40
2023-02-15T08:07:08.970Z,2.50
2023-02-15T08:09:36.954Z,2.50
2023-02-15T08:12:05.883Z,2.50
2023-02-15T08:14:33.874Z,2.60
2023-02-15T08:17:03.683Z,2.60
2023-02-15T08:19:33.216Z,2.70
2023-02-15T08:22:03.213Z,2.70
2023-02-15T08:24:32.799Z,2.70
2023-02-15T08:27:05.936Z,2.80
2023-02-15T08:29:35.245Z,2.80
2023-02-15T08:32:07.579Z,2.80
2023-02-15T08:34:37.020Z,2.90
2023-02-15T08:37:05.073Z,3.00
2023-02-15T08:39:33.095Z,3.10
2023-02-15T08:42:01.337Z,3.20
2023-02-15T08:44:29.732Z,3.20
2023-02-15T08:47:03.468Z,3.30
2023-02-15T08:49:33.184Z,3.30
2023-02-15T08:52:01.671Z,3.40
2023-02-15T08:54:29.887Z,3.50
2023-02-15T08:56:57.884Z,3.50
2023-02-15T08:59:27.900Z,3.60
2023-02-15T09:01:56.523Z,3.60
2023-02-15T09:04:24.599Z,3.60
2023-02-15T09:06:54.351Z,3.70
2023-02-15T09:09:23.121Z,3.80
2023-02-15T09:11:57.833Z,3.90
2023-02-15T09:14:28.019Z,3.90
2023-02-15T09:16:56.531Z,4.00
2023-02-15T09:19:25.669Z,4.00
2023-02-15T09:21:55.468Z,4.10
2023-02-15T09:24:23.632Z,4.20
2023-02-15T09:26:51.621Z,4.20
2023-02-15T09:29:20.818Z,4.30
2023-02-15T09:31:50.805Z,4.30
2023-02-15T09:34:20.661Z,4.40
2023-02-15T09:36:49.030Z,4.40
2023-02-15T09:39:20.814Z,4.50
2023-02-15T09:42:26.332Z,4.60
2023-02-15T09:45:07.909Z,4.70
2023-02-15T09:48:02.866Z,4.70
2023-02-15T09:50:38.495Z,4.80
2023-02-15T09:53:27.395Z,4.90
2023-02-15T09:56:04.297Z,5.00
2023-02-15T09:58:41.208Z,5.10
2023-02-15T10:01:22.422Z,5.10
2023-02-15T10:04:08.524Z,5.20
2023-02-15T10:06:43.097Z,5.30
2023-02-15T10:09:32.911Z,5.40
2023-02-15T10:12:27.603Z,5.50
2023-02-15T10:15:21.964Z,5.50
2023-02-15T10:18:07.285Z,5.50
2023-02-15T10:20:47.407Z,5.60
2023-02-15T10:23:44.106Z,5.70
2023-02-15T10:26:17.860Z,5.80
2023-02-15T10:28:50.640Z,5.80
2023-02-15T10:31:28.365Z,5.90
2023-02-15T10:34:12.548Z,6.00
2023-02-15T10:37:02.921Z,6.10
2023-02-15T10:39:39.790Z,6.10
2023-02-15T10:42:17.421Z,6.30
2023-02-15T10:44:59.118Z,6.30
2023-02-15T10:47:40.512Z,6.40
2023-02-15T10:50:22.825Z,6.50
2023-02-15T10:53:05.564Z,6.50
2023-02-15T10:55:47.618Z,6.60
2023-02-15T10:58:27.312Z,6.70
2023-02-15T11:01:05.672Z,6.80
2023-02-15T11:03:51.221Z,6.90
2023-02-15T11:06:21.892Z,7.00
2023-02-15T11:08:54.266Z,7.00
2023-02-15T11:11:25.196Z,7.10
2023-02-15T11:13:58.729Z,7.20
2023-02-15T11:16:31.901Z,7.30
2023-02-15T11:19:06.714Z,7.30
2023-02-15T11:21:39.812Z,7.40
2023-02-15T11:24:12.080Z,7.50
2023-02-15T11:26:44.750Z,7.60
2023-02-15T11:29:19.635Z,7.70
2023-02-15T11:31:53.040Z,7.70
2023-02-15T11:34:26.741Z,7.80
2023-02-15T11:36:57.801Z,7.80
2023-02-15T11:39:29.481Z,7.90
2023-02-15T11:42:04.694Z,8.00
2023-02-15T11:44:37.152Z,8.00
2023-02-15T11:47:12.349Z,8.10
2023-02-15T11:49:41.185Z,8.10
2023-02-15T11:52:13.533Z,8.20
2023-02-15T11:54:45.409Z,8.20
2023-02-15T11:57:22.307Z,8.30
2023-02-15T11:59:55.567Z,8.30
2023-02-15T12:02:27.580Z,8.30
2023-02-15T12:04:58.878Z,8.40
2023-02-15T12:07:29.994Z,8.40
2023-02-15T12:10:05.221Z,8.50
2023-02-15T12:12:34.829Z,8.50
2023-02-15T12:15:04.316Z,8.50
2023-02-15T12:17:36.332Z,8.60
2023-02-15T12:20:08.899Z,8.70
2023-02-15T12:22:39.368Z,8.70
2023-02-15T12:25:24.173Z,8.80
2023-02-15T12:27:52.650Z,8.80
2023-02-15T12:30:34.410Z,8.80
2023-02-15T12:33:16.103Z,8.90
2023-02-15T12:35:45.082Z,8.90
2023-02-15T12:38:29.429Z,9.00
2023-02-15T12:41:02.922Z,9.10
2023-02-15T12:43:34.976Z,9.10
2023-02-15T12:46:22.457Z,9.20
2023-02-15T12:49:08.696Z,9.30
2023-02-15T12:51:46.262Z,9.30
2023-02-15T12:54:39.614Z,9.30
2023-02-15T12:57:32.466Z,9.40
2023-02-15T13:00:02.629Z,9.40
2023-02-15T13:02:35.365Z,9.50
2023-02-15T13:05:19.512Z,9.50
2023-02-15T13:07:51.203Z,9.50
2023-02-15T13:10:27.883Z,9.60
2023-02-15T13:12:58.609Z,9.70
2023-02-15T13:15:31.592Z,9.70
2023-02-15T13:18:01.548Z,9.70
2023-02-15T13:20:31.624Z,9.70
2023-02-15T13:23:01.742Z,9.70
2023-02-15T13:25:35.411Z,9.80
2023-02-15T13:28:05.213Z,9.80
2023-02-15T13:30:37.021Z,9.80
2023-02-15T13:33:07.711Z,9.80
2023-02-15T13:35:45.526Z,9.80
2023-02-15T13:38:33.913Z,9.90
2023-02-15T13:41:06.950Z,9.90
2023-02-15T13:43:44.325Z,9.90
2023-02-15T13:46:25.164Z,9.90
2023-02-15T13:49:03.560Z,9.90
2023-02-15T13:51:40.386Z,9.90
2023-02-15T13:54:38.759Z,9.90
2023-02-15T13:57:26.658Z,9.90
2023-02-15T14:00:14.760Z,9.90
2023-02-15T14:03:11.909Z,9.90
2023-02-15T14:05:53.952Z,10.00
2023-02-15T14:08:38.321Z,10.00
2023-02-15T14:11:15.100Z,10.00
2023-02-15T14:13:57.988Z,10.00
2023-02-15T14:16:35.530Z,10.00
2023-02-15T14:19:16.063Z,10.00
2023-02-15T14:21:49.010Z,10.00
2023-02-15T14:24:32.227Z,9.90
2023-02-15T14:27:11.453Z,10.00
2023-02-15T14:29:50.060Z,9.90
2023-02-15T14:32:25.792Z,9.90
2023-02-15T14:34:57.035Z,9.90
2023-02-15T14:37:35.223Z,9.90
2023-02-15T14:40:27.766Z,9.90
2023-02-15T14:43:00.723Z,9.90
2023-02-15T14:45:37.990Z,9.90
2023-02-15T14:48:13.877Z,9.80
2023-02-15T14:50:47.492Z,9.80
2023-02-15T14:53:39.585Z,9.80
2023-02-15T14:56:19.200Z,9.80
2023-02-15T14:59:21.703Z,9.80
2023-02-15T15:01:59.694Z,9.70
2023-02-15T15:04:32.778Z,9.70
2023-02-15T15:07:07.839Z,9.70
2023-02-15T15:09:38.163Z,9.60
2023-02-15T15:12:32.822Z,9.60
2023-02-15T15:15:02.024Z,9.60
2023-02-15T15:17:55.164Z,9.50
2023-02-15T15:20:51.227Z,9.50
2023-02-15T15:23:52.834Z,9.50
2023-02-15T15:26:37.846Z,9.40
2023-02-15T15:29:08.812Z,9.40
2023-02-15T15:31:45.958Z,9.40
2023-02-15T15:35:05.464Z,9.40
2023-02-15T15:37:52.440Z,9.30
2023-02-15T15:40:44.135Z,9.30
2023-02-15T15:43:55.464Z,9.20
2023-02-15T15:46:58.134Z,9.20
2023-02-15T15:49:31.437Z,9.10
2023-02-15T15:52:03.298Z,9.00
2023-02-15T15:54:32.685Z,9.00
2023-02-15T15:57:04.199Z,8.90
2023-02-15T15:59:34.160Z,8.90
2023-02-15T16:02:08.755Z,8.80
2023-02-15T16:04:37.488Z,8.70
2023-02-15T16:07:26.322Z,8.60
2023-02-15T16:09:59.126Z,8.60
2023-02-15T16:12:28.934Z,8.50
2023-02-15T16:14:57.991Z,8.40
2023-02-15T16:17:32.692Z,8.30
2023-02-15T16:20:05.017Z,8.20
2023-02-15T16:22:35.254Z,8.00
2023-02-15T16:25:31.529Z,7.90
2023-02-15T16:28:07.636Z,7.80
2023-02-15T16:30:37.580Z,7.70
2023-02-15T16:33:09.491Z,7.60
2023-02-15T16:35:39.364Z,7.50
2023-02-15T16:38:07.782Z,7.40
2023-02-15T16:40:52.143Z,7.30
2023-02-15T16:43:26.542Z,7.20
2023-02-15T16:46:00.450Z,7.20
2023-02-15T16:48:30.112Z,7.10
2023-02-15T16:50:59.894Z,7.00
2023-02-15T16:53:29.537Z,7.00
2023-02-15T16:55:59.819Z,6.90
2023-02-15T16:58:33.494Z,6.80
2023-02-15T17:01:04.186Z,6.80
2023-02-15T17:03:33.940Z,6.70
2023-02-15T17:06:04.333Z,6.60
2023-02-15T17:08:34.887Z,6.50
2023-02-15T17:11:13.692Z,6.40
2023-02-15T17:14:03.533Z,6.40
2023-02-15T17:16:34.210Z,6.30
2023-02-15T17:19:09.989Z,6.20
2023-02-15T17:21:44.573Z,6.20
2023-02-15T17:24:19.708Z,6.10
2023-02-15T17:26:52.488Z,6.10
2023-02-15T17:29:27.446Z,6.00
2023-02-15T17:31:58.764Z,5.90
2023-02-15T17:35:17.545Z,5.90
2023-02-15T17:37:48.909Z,5.90
2023-02-15T17:40:25.624Z,5.80
2023-02-15T17:42:54.038Z,5.80
2023-02-15T17:45:23.084Z,5.80
2023-02-15T17:47:51.401Z,5.70
2023-02-15T17:50:22.588Z,5.70
2023-02-15T17:52:52.604Z,5.60
2023-02-15T17:55:39.422Z,5.60
2023-02-15T17:58:09.665Z,5.60
2023-02-15T18:00:59.042Z,5.50
2023-02-15T18:03:52.120Z,5.50
2023-02-15T18:06:37.658Z,5.50
2023-02-15T18:09:25.219Z,5.50
2023-02-15T18:11:53.223Z,5.50
2023-02-15T18:14:21.195Z,5.50
2023-02-15T18:16:49.240Z,5.50
2023-02-15T18:19:19.025Z,5.40
2023-02-15T18:21:48.037Z,5.40
2023-02-15T18:24:20.189Z,5.40
2023-02-15T18:26:49.105Z,5.30
2023-02-15T18:29:17.426Z,5.20
2023-02-15T18:31:48.215Z,5.20
2023-02-15T18:34:24.690Z,5.10
2023-02-15T18:36:53.319Z,5.10
2023-02-15T18:39:33.579Z,5.00
2023-02-15T18:42:01.698Z,5.00
2023-02-15T18:44:29.663Z,5.00
2023-02-15T18:46:57.670Z,5.00
2023-02-15T18:49:25.738Z,4.90
2023-02-15T18:51:54.683Z,4.90
2023-02-15T18:54:26.396Z,4.90
2023-02-15T18:56:57.886Z,4.90
2023-02-15T18:59:27.868Z,4.80
2023-02-15T19:01:55.830Z,4.80
2023-02-15T19:04:25.773Z,4.80
2023-02-15T19:06:55.092Z,4.80
2023-02-15T19:09:25.604Z,4.80
2023-02-15T19:11:55.675Z,4.80
2023-02-15T19:14:28.866Z,4.80
2023-02-15T19:16:57.630Z,4.80
2023-02-15T19:19:26.397Z,4.70
2023-02-15T19:21:54.778Z,4.70
2023-02-15T19:24:26.739Z,4.60
2023-02-15T19:26:54.718Z,4.60
2023-02-15T19:29:27.281Z,4.60
2023-02-15T19:31:55.445Z,4.50
2023-02-15T19:34:23.511Z,4.40
2023-02-15T19:36:54.345Z,4.40
2023-02-15T19:39:29.916Z,4.30
2023-02-15T19:41:58.071Z,4.40
2023-02-15T19:44:26.235Z,4.30
2023-02-15T19:46:54.215Z,4.40
2023-02-15T19:49:22.206Z,4.30
2023-02-15T19:51:50.537Z,4.30
2023-02-15T19:54:28.124Z,4.30
2023-02-15T19:56:58.056Z,4.20
2023-02-15T19:59:27.589Z,4.20
2023-02-15T20:01:56.110Z,4.20
2023-02-15T20:04:24.487Z,4.20
2023-02-15T20:06:53.679Z,4.20
2023-02-15T20:09:24.036Z,4.20
2023-02-15T20:11:52.613Z,4.10
2023-02-15T20:14:22.686Z,4.10
2023-02-15T20:16:51.041Z,4.00
2023-02-15T20:19:19.076Z,4.00
2023-02-15T20:21:51.742Z,3.90
2023-02-15T20:24:22.285Z,3.90
2023-02-15T20:26:50.463Z,3.80
2023-02-15T20:29:19.976Z,3.80
2023-02-15T20:31:49.775Z,3.80
2023-02-15T20:34:17.863Z,3.80
2023-02-15T20:36:45.840Z,3.70
2023-02-15T20:39:17.396Z,3.70
2023-02-15T20:41:48.255Z,3.70
2023-02-15T20:44:22.730Z,3.60
2023-02-15T20:46:53.765Z,3.60
2023-02-15T20:49:21.848Z,3.60
2023-02-15T20:51:49.845Z,3.50
2023-02-15T20:54:19.445Z,3.50
2023-02-15T20:56:48.297Z,3.50
2023-02-15T20:59:28.997Z,3.50
2023-02-15T21:02:02.101Z,3.50
2023-02-15T21:04:32.431Z,3.50
2023-02-15T21:07:00.954Z,3.50
2023-02-15T21:09:29.392Z,3.50
2023-02-15T21:11:59.411Z,3.50
2023-02-15T21:14:29.388Z,3.50
2023-02-15T21:16:58.781Z,3.40
2023-02-15T21:19:26.811Z,3.40
2023-02-15T21:21:55.129Z,3.40
2023-02-15T21:24:25.416Z,3.40
2023-02-15T21:26:54.679Z,3.30
2023-02-15T21:29:25.513Z,3.30
2023-02-15T21:31:53.688Z,3.30
2023-02-15T21:34:23.073Z,3.30
2023-02-15T21:36:51.660Z,3.30
2023-02-15T21:39:22.038Z,3.30
2023-02-15T21:42:09.088Z,3.30
2023-02-15T21:44:54.834Z,3.30
2023-02-15T21:47:45.159Z,3.30
2023-02-15T21:50:34.926Z,3.20
2023-02-15T21:53:04.346Z,3.20
2023-02-15T21:55:32.881Z,3.20
2023-02-15T21:58:00.994Z,3.10
2023-02-15T22:00:31.183Z,3.10
2023-02-15T22:03:00.936Z,3.10
2023-02-15T22:05:32.136Z,3.10
2023-02-15T22:08:01.237Z,3.10
2023-02-15T22:10:32.197Z,3.00
2023-02-15T22:13:01.779Z,3.00
2023-02-15T22:15:35.611Z,3.00
2023-02-15T22:18:04.635Z,3.10
2023-02-15T22:20:33.986Z,3.10
2023-02-15T22:23:02.006Z,3.00
2023-02-15T22:25:30.019Z,3.00
2023-02-15T22:27:58.137Z,3.00
2023-02-15T22:30:28.019Z,2.90
2023-02-15T22:32:57.024Z,2.90
2023-02-15T22:35:27.340Z,2.90
2023-02-15T22:37:56.818Z,2.80
2023-02-15T22:40:30.055Z,2.80
2023-02-15T22:42:59.397Z,2.80
2023-02-15T22:45:29.094Z,2.80
2023-02-15T22:47:59.634Z,2.80
2023-02-15T22:50:29.790Z,2.80
2023-02-15T22:53:01.388Z,2.80
2023-02-15T22:55:32.128Z,2.80
2023-02-15T22:58:00.660Z,2.80
2023-02-15T23:00:32.241Z,2.70
2023-02-15T23:03:00.361Z,2.70
2023-02-15T23:05:30.929Z,2.70
2023-02-15T23:08:00.343Z,2.70
2023-02-15T23:10:30.167Z,2.70
2023-02-15T23:13:17.203Z,2.70
2023-02-15T23:15:48.723Z,2.70
2023-02-15T23:18:19.811Z,2.70
2023-02-15T23:20:50.700Z,2.70
2023-02-15T23:23:23.841Z,2.70
2023-02-15T23:25:51.914Z,2.70
2023-02-15T23:28:23.092Z,2.70
2023-02-15T23:30:51.664Z,2.70
2023-02-15T23:33:22.297Z,2.70
2023-02-15T23:35:50.541Z,2.70
2023-02-15T23:38:26.532Z,2.70
2023-02-15T23:41:14.731Z,2.70
2023-02-15T23:43:45.453Z,2.70
2023-02-15T23:46:23.873Z,2.70
2023-02-15T23:48:52.867Z,2.70
2023-02-15T23:51:21.918Z,2.70
2023-02-15T23:53:51.305Z,2.60
2023-02-15T23:56:19.442Z,2.60
2023-02-15T23:58:47.909Z,2.60
